createdAt,value
2023-06-18T00:00:17.217Z,98793.40
2023-06-18T00:03:15.016Z,98791.20
2023-06-18T00:06:12.508Z,98790.40
2023-06-18T00:09:10.160Z,98787.40
2023-06-18T00:12:07.823Z,98785.20
2023-06-18T00:15:05.323Z,98794.60
2023-06-18T00:18:03.430Z,98784.40
2023-06-18T00:21:04.544Z,98791.00
2023-06-18T00:24:02.204Z,98790.80
2023-06-18T00:26:59.710Z,98785.60
2023-06-18T00:29:58.537Z,98783.60
2023-06-18T00:32:56.426Z,98782.40
2023-06-18T00:35:58.005Z,98785.40
2023-06-18T00:38:56.211Z,98787.60
2023-06-18T00:41:53.692Z,98791.00
2023-06-18T00:44:51.590Z,98783.20
2023-06-18T00:47:49.707Z,98783.40
2023-06-18T00:50:47.804Z,98776.40
2023-06-18T00:53:45.326Z,98777.20
2023-06-18T00:56:52.214Z,98776.00
2023-06-18T00:59:51.796Z,98775.00
2023-06-18T01:02:51.564Z,98774.60
2023-06-18T01:05:51.067Z,98767.60
2023-06-18T01:08:50.167Z,98775.80
2023-06-18T01:11:48.206Z,98778.40
2023-06-18T01:14:51.560Z,98773.60
2023-06-18T01:17:49.902Z,98771.00
2023-06-18T01:20:48.848Z,98774.40
2023-06-18T01:23:50.746Z,98766.60
2023-06-18T01:26:48.895Z,98764.40
2023-06-18T01:29:46.328Z,98758.20
2023-06-18T01:32:44.450Z,98761.40
2023-06-18T01:35:42.898Z,98756.40
2023-06-18T01:38:40.326Z,98763.00
2023-06-18T01:41:38.168Z,98758.80
2023-06-18T01:44:35.758Z,98762.00
2023-06-18T01:47:33.800Z,98757.80
2023-06-18T01:50:31.282Z,98761.20
2023-06-18T01:53:29.146Z,98762.60
2023-06-18T01:56:29.643Z,98761.80
2023-06-18T01:59:28.421Z,98765.60
2023-06-18T02:02:25.963Z,98766.00
2023-06-18T02:05:23.950Z,98768.40
2023-06-18T02:08:21.461Z,98764.40
2023-06-18T02:11:19.364Z,98761.60
2023-06-18T02:14:16.811Z,98763.00
2023-06-18T02:17:14.728Z,98761.80
2023-06-18T02:20:12.165Z,98764.20
2023-06-18T02:23:10.053Z,98764.60
2023-06-18T02:26:10.465Z,98765.60
2023-06-18T02:29:08.451Z,98775.60
2023-06-18T02:32:05.935Z,98769.60
2023-06-18T02:35:03.862Z,98770.60
2023-06-18T02:38:01.324Z,98776.40
2023-06-18T02:40:59.256Z,98774.20
2023-06-18T02:43:56.719Z,98771.00
2023-06-18T02:46:54.668Z,98771.20
2023-06-18T02:49:52.153Z,98765.60
2023-06-18T02:52:50.236Z,98764.60
2023-06-18T02:55:47.722Z,98763.60
2023-06-18T02:58:45.210Z,98764.00
2023-06-18T03:01:46.141Z,98767.40
2023-06-18T03:04:43.640Z,98765.00
2023-06-18T03:07:41.243Z,98770.80
2023-06-18T03:10:38.749Z,98770.00
2023-06-18T03:13:36.894Z,98771.40
2023-06-18T03:16:35.243Z,98767.20
2023-06-18T03:19:33.159Z,98764.40
2023-06-18T03:22:30.861Z,98761.00
2023-06-18T03:25:28.794Z,98759.20
2023-06-18T03:28:26.497Z,98767.80
2023-06-18T03:31:24.343Z,98767.60
2023-06-18T03:34:22.905Z,98764.00
2023-06-18T03:37:20.364Z,98769.20
2023-06-18T03:40:18.281Z,98770.00
2023-06-18T03:43:15.843Z,98769.00
2023-06-18T03:46:14.276Z,98771.80
2023-06-18T03:49:11.803Z,98765.60
2023-06-18T03:52:09.713Z,98767.40
2023-06-18T03:55:07.681Z,98767.20
2023-06-18T03:58:05.097Z,98770.20
2023-06-18T04:01:03.020Z,98769.00
2023-06-18T04:04:01.014Z,98768.80
2023-06-18T04:06:59.680Z,98774.40
2023-06-18T04:09:57.201Z,98776.40
2023-06-18T04:12:55.203Z,98783.20
2023-06-18T04:15:52.714Z,98780.60
2023-06-18T04:18:50.602Z,98784.40
2023-06-18T04:21:48.087Z,98791.80
2023-06-18T04:24:46.282Z,98789.00
2023-06-18T04:27:43.777Z,98799.00
2023-06-18T04:30:41.597Z,98795.80
2023-06-18T04:33:39.048Z,98798.40
2023-06-18T04:36:38.190Z,98800.40
2023-06-18T04:39:35.826Z,98799.40
2023-06-18T04:42:33.921Z,98805.40
2023-06-18T04:45:31.867Z,98801.40
2023-06-18T04:48:29.400Z,98802.60
2023-06-18T04:51:27.205Z,98804.80
2023-06-18T04:54:24.676Z,98812.40
2023-06-18T04:57:23.855Z,98811.00
2023-06-18T05:00:22.525Z,98813.80
2023-06-18T05:03:20.414Z,98809.40
2023-06-18T05:06:18.454Z,98812.80
2023-06-18T05:09:16.498Z,98810.20
2023-06-18T05:12:14.410Z,98809.20
2023-06-18T05:15:11.842Z,98809.20
2023-06-18T05:18:09.833Z,98808.20
2023-06-18T05:21:07.305Z,98806.60
2023-06-18T05:24:05.367Z,98807.60
2023-06-18T05:27:02.843Z,98813.00
2023-06-18T05:30:01.072Z,98816.80
2023-06-18T05:32:58.625Z,98818.20
2023-06-18T05:35:56.492Z,98815.00
2023-06-18T05:39:00.908Z,98826.00
2023-06-18T05:41:58.982Z,98825.20
2023-06-18T05:44:57.772Z,98822.80
2023-06-18T05:47:55.628Z,98825.20
2023-06-18T05:50:53.220Z,98831.60
2023-06-18T05:53:51.086Z,98832.80
2023-06-18T05:56:48.600Z,98831.40
2023-06-18T05:59:49.177Z,98833.80
2023-06-18T06:02:46.658Z,98829.80
2023-06-18T06:05:44.636Z,98834.00
2023-06-18T06:08:42.524Z,98830.00
2023-06-18T06:11:42.082Z,98829.60
2023-06-18T06:14:40.387Z,98827.60
2023-06-18T06:17:37.925Z,98831.60
2023-06-18T06:20:35.897Z,98829.40
2023-06-18T06:23:33.312Z,98826.60
2023-06-18T06:26:31.569Z,98825.00
2023-06-18T06:29:29.054Z,98822.20
2023-06-18T06:32:27.090Z,98821.40
2023-06-18T06:35:25.529Z,98821.60
2023-06-18T06:38:23.529Z,98819.00
2023-06-18T06:41:21.394Z,98815.60
2023-06-18T06:44:18.849Z,98815.20
2023-06-18T06:47:17.045Z,98817.40
2023-06-18T06:50:15.106Z,98812.60
2023-06-18T06:53:12.537Z,98811.40
2023-06-18T06:56:10.547Z,98816.80
2023-06-18T06:59:08.400Z,98815.40
2023-06-18T07:02:06.134Z,98821.80
2023-06-18T07:05:06.327Z,98819.40
2023-06-18T07:08:06.714Z,98823.20
2023-06-18T07:11:04.635Z,98821.80
2023-06-18T07:14:02.091Z,98824.60
2023-06-18T07:16:59.984Z,98823.20
2023-06-18T07:19:58.810Z,98825.60
2023-06-18T07:22:59.586Z,98823.40
2023-06-18T07:25:57.040Z,98823.00
2023-06-18T07:28:54.882Z,98829.00
2023-06-18T07:31:52.390Z,98831.80
2023-06-18T07:34:50.312Z,98838.00
2023-06-18T07:37:48.911Z,98838.20
2023-06-18T07:40:46.688Z,98841.00
2023-06-18T07:43:44.238Z,98834.20
2023-06-18T07:46:42.734Z,98832.80
2023-06-18T07:49:40.681Z,98836.00
2023-06-18T07:52:38.165Z,98839.20
2023-06-18T07:55:36.014Z,98837.60
2023-06-18T07:58:33.501Z,98834.80
2023-06-18T08:01:31.395Z,98840.80
2023-06-18T08:04:28.866Z,98845.00
2023-06-18T08:07:26.707Z,98842.40
2023-06-18T08:10:24.332Z,98838.00
2023-06-18T08:13:22.610Z,98847.60
2023-06-18T08:16:20.095Z,98845.40
2023-06-18T08:19:18.056Z,98844.00
2023-06-18T08:22:15.496Z,98842.60
2023-06-18T08:25:13.602Z,98847.00
2023-06-18T08:28:11.040Z,98846.40
2023-06-18T08:31:09.142Z,98845.60
2023-06-18T08:34:07.524Z,98842.60
2023-06-18T08:37:05.124Z,98849.80
2023-06-18T08:40:04.280Z,98845.80
2023-06-18T08:43:07.254Z,98846.20
2023-06-18T08:46:06.376Z,98845.00
2023-06-18T08:49:04.002Z,98845.60
2023-06-18T08:52:01.667Z,98847.00
2023-06-18T08:54:59.183Z,98844.40
2023-06-18T08:57:57.023Z,98847.00
2023-06-18T09:00:55.329Z,98844.60
2023-06-18T09:03:53.365Z,98839.20
2023-06-18T09:06:50.867Z,98841.80
2023-06-18T09:09:48.848Z,98836.40
2023-06-18T09:12:46.278Z,98841.40
2023-06-18T09:15:44.279Z,98837.40
2023-06-18T09:18:41.762Z,98833.40
2023-06-18T09:21:40.553Z,98831.40
2023-06-18T09:24:38.226Z,98833.00
2023-06-18T09:27:38.039Z,98835.40
2023-06-18T09:30:35.548Z,98836.60
2023-06-18T09:33:33.279Z,98835.60
2023-06-18T09:36:30.773Z,98833.60
2023-06-18T09:39:28.426Z,98833.80
2023-06-18T09:42:25.977Z,98839.60
2023-06-18T09:45:23.856Z,98837.60
2023-06-18T09:48:22.072Z,98835.40
2023-06-18T09:51:19.709Z,98830.80
2023-06-18T09:54:17.475Z,98835.60
2023-06-18T09:57:16.467Z,98833.00
2023-06-18T10:00:15.390Z,98829.60
2023-06-18T10:03:12.906Z,98833.00
2023-06-18T10:06:10.580Z,98831.20
2023-06-18T10:09:08.041Z,98833.00
2023-06-18T10:12:05.814Z,98832.60
2023-06-18T10:15:03.488Z,98825.80
2023-06-18T10:18:00.976Z,98826.20
2023-06-18T10:20:58.811Z,98822.40
2023-06-18T10:23:56.305Z,98822.40
2023-06-18T10:26:54.332Z,98820.40
2023-06-18T10:29:51.825Z,98821.40
2023-06-18T10:32:49.581Z,98823.00
2023-06-18T10:35:47.184Z,98823.60
2023-06-18T10:38:44.990Z,98826.20
2023-06-18T10:41:42.422Z,98824.00
2023-06-18T10:44:41.047Z,98819.40
2023-06-18T10:47:39.061Z,98826.80
2023-06-18T10:50:36.819Z,98826.00
2023-06-18T10:53:34.639Z,98826.40
2023-06-18T10:56:32.110Z,98830.20
2023-06-18T10:59:30.896Z,98833.20
2023-06-18T11:02:28.508Z,98826.80
2023-06-18T11:05:26.516Z,98829.00
2023-06-18T11:08:24.166Z,98830.40
2023-06-18T11:11:21.655Z,98829.40
2023-06-18T11:14:19.382Z,98833.00
2023-06-18T11:17:18.550Z,98827.80
2023-06-18T11:20:16.210Z,98829.60
2023-06-18T11:23:13.649Z,98829.00
2023-06-18T11:26:11.355Z,98825.40
2023-06-18T11:29:09.599Z,98820.40
2023-06-18T11:32:07.079Z,98820.40
2023-06-18T11:35:04.931Z,98815.00
2023-06-18T11:38:02.372Z,98814.20
2023-06-18T11:41:00.032Z,98810.20
2023-06-18T11:43:58.640Z,98804.20
2023-06-18T11:46:56.745Z,98802.40
2023-06-18T11:49:54.449Z,98797.40
2023-06-18T11:56:10.720Z,98795.20
2023-06-18T11:59:08.199Z,98793.20
2023-06-18T12:02:05.985Z,98792.00
2023-06-18T12:05:03.812Z,98798.80
2023-06-18T12:08:01.532Z,98797.20
2023-06-18T12:11:00.124Z,98795.40
2023-06-18T12:13:57.925Z,98791.60
2023-06-18T12:16:57.421Z,98781.80
2023-06-18T12:19:55.207Z,98783.40
2023-06-18T12:22:53.554Z,98787.00
2023-06-18T12:25:52.018Z,98787.00
2023-06-18T12:28:49.831Z,98787.60
2023-06-18T12:31:47.338Z,98783.00
2023-06-18T12:34:45.172Z,98779.60
2023-06-18T12:37:42.759Z,98786.80
2023-06-18T12:40:40.425Z,98780.40
2023-06-18T12:43:38.132Z,98782.80
2023-06-18T12:46:36.579Z,98771.40
2023-06-18T12:49:34.271Z,98772.80
2023-06-18T12:52:31.840Z,98771.60
2023-06-18T12:55:29.725Z,98763.60
2023-06-18T12:58:28.623Z,98763.80
2023-06-18T13:01:26.161Z,98767.80
2023-06-18T13:04:24.667Z,98764.80
2023-06-18T13:07:23.607Z,98756.20
2023-06-18T13:10:21.273Z,98757.80
2023-06-18T13:13:19.422Z,98760.00
2023-06-18T13:16:17.558Z,98754.60
2023-06-18T13:19:15.371Z,98755.80
2023-06-18T13:22:12.821Z,98755.00
2023-06-18T13:25:13.126Z,98748.80
2023-06-18T13:28:10.566Z,98750.60
2023-06-18T13:31:08.361Z,98748.60
2023-06-18T13:34:06.006Z,98749.60
2023-06-18T13:37:03.453Z,98741.20
2023-06-18T13:40:01.372Z,98738.80
2023-06-18T13:42:59.671Z,98738.80
2023-06-18T13:45:57.619Z,98745.20
2023-06-18T13:48:55.186Z,98745.80
2023-06-18T13:51:52.899Z,98748.20
2023-06-18T13:54:50.541Z,98742.20
2023-06-18T13:57:48.086Z,98744.00
2023-06-18T14:00:46.657Z,98740.00
2023-06-18T14:03:44.226Z,98742.20
2023-06-18T14:06:41.945Z,98741.80
2023-06-18T14:09:39.617Z,98741.00
2023-06-18T14:12:37.199Z,98746.60
2023-06-18T14:15:34.973Z,98739.60
2023-06-18T14:18:32.465Z,98736.80
2023-06-18T14:21:30.202Z,98730.80
2023-06-18T14:24:28.030Z,98727.80
2023-06-18T14:27:25.514Z,98733.00
2023-06-18T14:30:23.402Z,98727.40
2023-06-18T14:33:21.098Z,98730.40
2023-06-18T14:36:18.971Z,98723.00
2023-06-18T14:39:16.449Z,98727.00
2023-06-18T14:42:14.164Z,98728.20
2023-06-18T14:45:12.043Z,98724.00
2023-06-18T14:48:09.589Z,98724.00
2023-06-18T14:51:07.367Z,98719.60
2023-06-18T14:54:12.909Z,98720.80
2023-06-18T14:57:11.156Z,98720.80
2023-06-18T15:00:09.110Z,98717.80
2023-06-18T15:03:06.848Z,98718.80
2023-06-18T15:06:04.377Z,98717.20
2023-06-18T15:09:02.267Z,98714.20
2023-06-18T15:12:00.058Z,98716.20
2023-06-18T15:14:57.919Z,98714.40
2023-06-18T15:17:55.605Z,98708.00
2023-06-18T15:20:53.109Z,98711.40
2023-06-18T15:23:50.780Z,98718.60
2023-06-18T15:26:48.562Z,98718.40
2023-06-18T15:29:46.756Z,98714.20
2023-06-18T15:32:44.489Z,98719.60
2023-06-18T15:35:42.118Z,98721.60
2023-06-18T15:38:39.802Z,98725.60
2023-06-18T15:41:37.280Z,98719.60
2023-06-18T15:44:35.087Z,98724.40
2023-06-18T15:47:32.794Z,98725.40
2023-06-18T15:50:30.274Z,98719.20
2023-06-18T15:53:28.032Z,98723.60
2023-06-18T15:56:25.513Z,98726.40
2023-06-18T15:59:23.210Z,98723.40
2023-06-18T16:02:20.739Z,98726.80
2023-06-18T16:05:18.409Z,98726.20
2023-06-18T16:08:15.875Z,98725.20
2023-06-18T16:11:13.651Z,98726.60
2023-06-18T16:17:30.125Z,98727.60
2023-06-18T16:20:27.831Z,98724.40
2023-06-18T16:23:26.330Z,98726.80
2023-06-18T16:26:24.787Z,98727.80
2023-06-18T16:29:22.292Z,98727.60
2023-06-18T16:32:20.113Z,98726.20
2023-06-18T16:35:18.793Z,98725.00
2023-06-18T16:38:16.425Z,98730.00
2023-06-18T16:41:14.147Z,98730.40
2023-06-18T16:44:11.595Z,98727.80
2023-06-18T16:47:09.250Z,98730.00
2023-06-18T16:50:06.763Z,98730.80
2023-06-18T16:53:04.660Z,98736.20
2023-06-18T16:56:02.759Z,98732.80
2023-06-18T16:59:01.340Z,98732.00
2023-06-18T17:01:59.129Z,98731.00
2023-06-18T17:04:56.723Z,98736.40
2023-06-18T17:07:54.562Z,98733.80
2023-06-18T17:10:52.003Z,98736.20
2023-06-18T17:13:49.640Z,98741.60
2023-06-18T17:16:47.180Z,98742.80
2023-06-18T17:19:44.857Z,98738.00
2023-06-18T17:22:42.357Z,98737.20
2023-06-18T17:25:39.795Z,98736.20
2023-06-18T17:28:37.801Z,98739.40
2023-06-18T17:31:35.216Z,98735.80
2023-06-18T17:34:33.109Z,98736.00
2023-06-18T17:37:30.712Z,98739.40
2023-06-18T17:40:28.562Z,98741.40
2023-06-18T17:43:26.555Z,98737.00
2023-06-18T17:46:24.060Z,98733.80
2023-06-18T17:49:25.245Z,98731.80
2023-06-18T17:52:22.781Z,98732.00
2023-06-18T17:55:20.403Z,98732.00
2023-06-18T17:58:18.515Z,98735.20
2023-06-18T18:01:17.711Z,98734.40
2023-06-18T18:04:16.283Z,98732.60
2023-06-18T18:07:14.167Z,98735.20
2023-06-18T18:10:12.412Z,98739.60
2023-06-18T18:13:09.918Z,98742.00
2023-06-18T18:16:07.839Z,98743.40
2023-06-18T18:19:05.376Z,98744.80
2023-06-18T18:22:03.345Z,98744.80
2023-06-18T18:25:01.698Z,98748.20
2023-06-18T18:27:59.772Z,98745.60
2023-06-18T18:30:57.753Z,98749.80
2023-06-18T18:33:55.641Z,98751.40
2023-06-18T18:36:54.294Z,98749.80
2023-06-18T18:39:51.830Z,98754.40
2023-06-18T18:42:56.468Z,98751.60
2023-06-18T18:45:55.997Z,98756.40
2023-06-18T18:48:54.797Z,98756.00
2023-06-18T18:51:53.989Z,98759.20
2023-06-18T18:54:52.680Z,98754.20
2023-06-18T18:57:50.283Z,98756.40
2023-06-18T19:00:50.322Z,98758.80
2023-06-18T19:03:49.979Z,98761.40
2023-06-18T19:06:48.095Z,98766.20
2023-06-18T19:09:47.348Z,98767.80
2023-06-18T19:12:45.727Z,98770.00
2023-06-18T19:15:44.220Z,98769.40
2023-06-18T19:18:44.486Z,98775.40
2023-06-18T19:21:41.966Z,98774.40
2023-06-18T19:24:40.995Z,98774.00
2023-06-18T19:27:39.894Z,98779.40
2023-06-18T19:30:40.623Z,98779.60
2023-06-18T19:33:38.823Z,98783.20
2023-06-18T19:36:38.792Z,98789.20
2023-06-18T19:39:38.080Z,98794.80
2023-06-18T19:42:40.165Z,98803.20
2023-06-18T19:45:39.247Z,98804.20
2023-06-18T19:48:38.195Z,98807.20
2023-06-18T19:51:38.113Z,98813.40
2023-06-18T19:54:38.726Z,98812.40
2023-06-18T19:57:37.168Z,98812.20
2023-06-18T20:00:37.726Z,98814.60
2023-06-18T20:03:39.744Z,98818.40
2023-06-18T20:06:38.194Z,98822.40
2023-06-18T20:09:36.558Z,98823.20
2023-06-18T20:12:34.458Z,98821.20
2023-06-18T20:15:32.443Z,98824.00
2023-06-18T20:18:33.101Z,98823.40
2023-06-18T20:21:32.546Z,98824.40
2023-06-18T20:24:30.687Z,98821.00
2023-06-18T20:27:29.563Z,98822.00
2023-06-18T20:30:28.063Z,98832.00
2023-06-18T20:33:26.925Z,98828.00
2023-06-18T20:36:25.404Z,98825.00
2023-06-18T20:39:24.394Z,98821.40
2023-06-18T20:42:23.110Z,98822.20
2023-06-18T20:45:21.690Z,98821.00
2023-06-18T20:48:19.602Z,98820.40
2023-06-18T20:51:18.238Z,98821.00
2023-06-18T20:54:15.726Z,98818.80
2023-06-18T20:57:15.658Z,98816.00
2023-06-18T21:00:13.187Z,98812.80
2023-06-18T21:03:11.359Z,98815.00
2023-06-18T21:06:09.078Z,98814.40
2023-06-18T21:09:07.248Z,98815.80
2023-06-18T21:12:04.739Z,98814.40
2023-06-18T21:15:02.670Z,98819.00
2023-06-18T21:18:00.621Z,98821.00
2023-06-18T21:20:58.209Z,98819.80
2023-06-18T21:23:56.232Z,98817.80
2023-06-18T21:26:53.691Z,98816.40
2023-06-18T21:29:51.899Z,98819.20
2023-06-18T21:32:49.861Z,98818.60
2023-06-18T21:35:48.802Z,98818.60
2023-06-18T21:38:46.745Z,98819.80
2023-06-18T21:41:44.246Z,98827.60
2023-06-18T21:44:42.272Z,98821.40
2023-06-18T21:47:41.193Z,98825.20
2023-06-18T21:50:38.824Z,98820.80
2023-06-18T21:53:36.617Z,98825.00
2023-06-18T21:56:34.075Z,98826.20
2023-06-18T21:59:32.051Z,98827.20
2023-06-18T22:02:29.524Z,98832.60
2023-06-18T22:05:27.468Z,98833.80
2023-06-18T22:08:25.671Z,98827.20
2023-06-18T22:11:23.933Z,98828.60
2023-06-18T22:14:21.418Z,98826.00
2023-06-18T22:17:19.469Z,98822.20
2023-06-18T22:20:17.111Z,98823.20
2023-06-18T22:23:15.017Z,98819.80
2023-06-18T22:26:12.964Z,98825.00
2023-06-18T22:29:10.547Z,98822.80
2023-06-18T22:32:08.576Z,98820.40
2023-06-18T22:35:06.493Z,98816.20
2023-06-18T22:38:03.994Z,98807.80
2023-06-18T22:41:01.904Z,98802.40
2023-06-18T22:43:59.371Z,98802.60
2023-06-18T22:46:57.336Z,98796.40
2023-06-18T22:49:54.861Z,98790.20
2023-06-18T22:52:52.881Z,98795.80
2023-06-18T22:55:50.335Z,98798.80
2023-06-18T22:58:48.623Z,98786.80
2023-06-18T23:01:46.222Z,98786.60
2023-06-18T23:04:44.200Z,98785.60
2023-06-18T23:07:41.722Z,98783.40
2023-06-18T23:10:40.528Z,98780.20
2023-06-18T23:13:38.084Z,98775.00
2023-06-18T23:16:36.075Z,98774.60
2023-06-18T23:19:33.587Z,98769.80
2023-06-18T23:22:31.985Z,98765.00
2023-06-18T23:25:30.062Z,98763.00
2023-06-18T23:28:27.560Z,98769.40
2023-06-18T23:31:25.454Z,98770.00
2023-06-18T23:34:26.839Z,98766.00
2023-06-18T23:37:26.643Z,98769.80
2023-06-18T23:40:25.061Z,98761.00
2023-06-18T23:43:22.961Z,98764.20
2023-06-18T23:46:20.868Z,98766.00
2023-06-18T23:49:18.737Z,98764.60
2023-06-18T23:52:17.025Z,98762.20
2023-06-18T23:55:14.539Z,98758.00
2023-06-18T23:58:12.450Z,98761.00
